createdAt,value
2022-10-19T00:02:25.267Z,12.95
2022-10-19T00:05:00.025Z,12.96
2022-10-19T00:07:31.908Z,13.01
2022-10-19T00:10:00.982Z,12.97
2022-10-19T00:12:29.827Z,12.99
2022-10-19T00:15:00.975Z,12.96
2022-10-19T00:17:32.058Z,12.95
2022-10-19T00:20:00.666Z,12.93
2022-10-19T00:22:30.744Z,12.92
2022-10-19T00:25:03.657Z,12.92
2022-10-19T00:27:33.876Z,12.92
2022-10-19T00:30:02.653Z,12.90
2022-10-19T00:32:33.723Z,12.91
2022-10-19T00:35:04.060Z,12.92
2022-10-19T00:37:34.487Z,12.91
2022-10-19T00:40:03.496Z,12.92
2022-10-19T00:42:32.600Z,12.92
2022-10-19T00:45:08.619Z,12.91
2022-10-19T00:47:37.454Z,12.93
2022-10-19T00:50:07.644Z,12.90
2022-10-19T00:52:39.322Z,12.88
2022-10-19T00:55:14.486Z,12.83
2022-10-19T00:57:46.430Z,12.83
2022-10-19T01:00:16.422Z,12.77
2022-10-19T01:02:46.365Z,12.74
2022-10-19T01:05:18.882Z,12.72
2022-10-19T01:07:49.000Z,12.68
2022-10-19T01:10:18.465Z,12.65
2022-10-19T01:13:08.326Z,12.64
2022-10-19T01:15:44.923Z,12.62
2022-10-19T01:18:23.113Z,12.58
2022-10-19T01:21:23.942Z,12.55
2022-10-19T01:24:30.283Z,12.53
2022-10-19T01:27:28.796Z,12.48
2022-10-19T01:30:09.399Z,12.46
2022-10-19T01:32:52.681Z,12.46
2022-10-19T01:35:27.392Z,12.47
2022-10-19T01:38:06.420Z,12.46
2022-10-19T01:40:42.403Z,12.48
2022-10-19T01:43:17.852Z,12.48
2022-10-19T01:45:52.968Z,12.48
2022-10-19T01:48:25.937Z,12.48
2022-10-19T01:51:00.431Z,12.47
2022-10-19T01:53:32.149Z,12.49
2022-10-19T01:56:05.288Z,12.55
2022-10-19T01:58:38.479Z,12.55
2022-10-19T02:01:12.581Z,12.51
2022-10-19T02:03:42.718Z,12.48
2022-10-19T02:06:15.959Z,12.52
2022-10-19T02:08:49.622Z,12.48
2022-10-19T02:11:20.292Z,12.42
2022-10-19T02:13:54.904Z,12.43
2022-10-19T02:16:29.417Z,12.45
2022-10-19T02:19:02.252Z,12.46
2022-10-19T02:21:33.860Z,12.46
2022-10-19T02:24:02.610Z,12.50
2022-10-19T02:26:32.829Z,12.54
2022-10-19T02:29:02.474Z,12.52
2022-10-19T02:31:32.668Z,12.52
2022-10-19T02:34:01.289Z,12.55
2022-10-19T02:36:30.197Z,12.53
2022-10-19T02:39:00.167Z,12.52
2022-10-19T02:41:38.231Z,12.49
2022-10-19T02:44:15.296Z,12.56
2022-10-19T02:46:51.502Z,12.49
2022-10-19T02:49:21.405Z,12.52
2022-10-19T02:52:02.032Z,12.47
2022-10-19T02:54:33.190Z,12.48
2022-10-19T02:57:05.035Z,12.46
2022-10-19T02:59:33.568Z,12.49
2022-10-19T03:02:04.063Z,12.45
2022-10-19T03:04:33.347Z,12.45
2022-10-19T03:07:03.905Z,12.48
2022-10-19T03:09:34.325Z,12.47
2022-10-19T03:12:04.464Z,12.46
2022-10-19T03:14:33.675Z,12.40
2022-10-19T03:17:05.196Z,12.44
2022-10-19T03:19:34.005Z,12.42
2022-10-19T03:22:02.916Z,12.52
2022-10-19T03:24:32.462Z,12.48
2022-10-19T03:27:02.373Z,12.49
2022-10-19T03:29:31.020Z,12.52
2022-10-19T03:32:00.404Z,12.54
2022-10-19T03:34:30.702Z,12.54
2022-10-19T03:37:01.494Z,12.55
2022-10-19T03:39:30.074Z,12.55
2022-10-19T03:41:58.892Z,12.50
2022-10-19T03:44:27.709Z,12.49
2022-10-19T03:46:56.482Z,12.49
2022-10-19T03:49:27.306Z,12.47
2022-10-19T03:51:57.191Z,12.44
2022-10-19T03:54:27.593Z,12.44
2022-10-19T03:56:57.334Z,12.41
2022-10-19T03:59:26.068Z,12.41
2022-10-19T04:01:54.913Z,12.41
2022-10-19T04:04:23.499Z,12.39
2022-10-19T04:06:54.143Z,12.36
2022-10-19T04:09:25.501Z,12.35
2022-10-19T04:11:53.955Z,12.28
2022-10-19T04:14:32.042Z,12.21
2022-10-19T04:17:01.655Z,12.17
2022-10-19T04:19:31.904Z,12.14
2022-10-19T04:22:01.717Z,12.15
2022-10-19T04:24:31.718Z,12.13
2022-10-19T04:27:00.150Z,12.10
2022-10-19T04:29:30.091Z,11.98
2022-10-19T04:31:59.746Z,11.87
2022-10-19T04:34:28.762Z,11.83
2022-10-19T04:36:59.638Z,11.81
2022-10-19T04:39:28.111Z,11.76
2022-10-19T04:41:58.300Z,11.76
2022-10-19T04:44:26.948Z,11.70
2022-10-19T04:46:55.403Z,11.75
2022-10-19T04:49:23.938Z,11.75
2022-10-19T04:51:52.345Z,11.73
2022-10-19T04:54:20.855Z,11.75
2022-10-19T04:56:50.246Z,11.75
2022-10-19T04:59:20.318Z,11.74
2022-10-19T05:01:48.797Z,11.75
2022-10-19T05:04:17.299Z,11.71
2022-10-19T05:06:46.065Z,11.70
2022-10-19T05:09:15.135Z,11.73
2022-10-19T05:11:43.504Z,11.71
2022-10-19T05:14:11.944Z,11.73
2022-10-19T05:16:42.468Z,11.67
2022-10-19T05:19:14.516Z,11.66
2022-10-19T05:21:43.097Z,11.71
2022-10-19T05:24:14.331Z,11.66
2022-10-19T05:26:45.356Z,11.64
2022-10-19T05:29:16.012Z,11.64
2022-10-19T05:31:46.082Z,11.55
2022-10-19T05:34:14.977Z,11.49
2022-10-19T05:36:43.326Z,11.52
2022-10-19T05:39:16.299Z,11.51
2022-10-19T05:41:47.576Z,11.54
2022-10-19T05:44:17.604Z,11.51
2022-10-19T05:46:48.201Z,11.48
2022-10-19T05:49:18.730Z,11.51
2022-10-19T05:51:48.122Z,11.51
2022-10-19T05:54:17.516Z,11.48
2022-10-19T05:56:46.132Z,11.52
2022-10-19T05:59:20.888Z,11.59
2022-10-19T06:01:51.629Z,11.56
2022-10-19T06:04:20.286Z,11.55
2022-10-19T06:06:49.170Z,11.58
2022-10-19T06:09:17.668Z,11.61
2022-10-19T06:11:46.295Z,11.65
2022-10-19T06:14:16.478Z,11.66
2022-10-19T06:16:46.402Z,11.70
2022-10-19T06:19:16.550Z,11.68
2022-10-19T06:21:47.104Z,11.70
2022-10-19T06:27:56.517Z,11.72
2022-10-19T06:30:25.334Z,11.72
2022-10-19T06:32:54.318Z,11.71
2022-10-19T06:35:24.416Z,11.73
2022-10-19T06:37:52.730Z,11.76
2022-10-19T06:40:21.275Z,11.77
2022-10-19T06:42:49.788Z,11.80
2022-10-19T06:45:18.661Z,11.84
2022-10-19T06:50:16.131Z,11.90
2022-10-19T06:52:46.355Z,11.99
2022-10-19T06:55:14.884Z,11.95
2022-10-19T06:57:43.293Z,11.95
2022-10-19T07:00:13.953Z,11.95
2022-10-19T07:02:42.332Z,11.95
2022-10-19T07:05:11.520Z,11.99
2022-10-19T07:07:39.889Z,11.98
2022-10-19T07:10:10.665Z,12.00
2022-10-19T07:12:41.087Z,12.00
2022-10-19T07:15:11.819Z,11.99
2022-10-19T07:17:40.177Z,11.97
2022-10-19T07:20:09.176Z,11.94
2022-10-19T07:22:37.777Z,12.00
2022-10-19T07:25:12.630Z,11.98
2022-10-19T07:27:43.824Z,12.01
2022-10-19T07:30:13.053Z,11.99
2022-10-19T07:32:46.786Z,12.00
2022-10-19T07:35:16.286Z,12.01
2022-10-19T07:37:44.578Z,12.01
2022-10-19T07:40:14.679Z,12.00
2022-10-19T07:42:44.664Z,12.01
2022-10-19T07:45:13.470Z,12.03
2022-10-19T07:47:41.740Z,12.01
2022-10-19T07:50:10.926Z,12.07
2022-10-19T07:52:39.688Z,12.04
2022-10-19T07:55:08.779Z,12.03
2022-10-19T07:57:38.036Z,12.00
2022-10-19T08:00:11.523Z,12.00
2022-10-19T08:02:59.724Z,12.00
2022-10-19T08:05:29.337Z,12.01
2022-10-19T08:07:58.119Z,12.03
2022-10-19T08:10:26.942Z,12.00
2022-10-19T08:12:55.436Z,12.01
2022-10-19T08:15:26.631Z,12.04
2022-10-19T08:17:55.388Z,12.08
2022-10-19T08:20:23.980Z,12.03
2022-10-19T08:22:56.453Z,12.09
2022-10-19T08:25:28.007Z,11.89
2022-10-19T08:27:56.239Z,11.85
2022-10-19T08:30:26.865Z,11.84
2022-10-19T08:32:55.932Z,11.86
2022-10-19T08:35:24.393Z,11.81
2022-10-19T08:37:53.939Z,11.87
2022-10-19T08:40:26.403Z,11.84
2022-10-19T08:43:03.779Z,11.85
2022-10-19T08:45:44.350Z,11.81
2022-10-19T08:48:26.619Z,11.80
2022-10-19T08:50:56.285Z,11.87
2022-10-19T08:53:35.482Z,11.82
2022-10-19T08:56:26.933Z,11.83
2022-10-19T08:59:13.420Z,11.87
2022-10-19T09:01:48.212Z,11.94
2022-10-19T09:04:24.745Z,11.94
2022-10-19T09:07:09.652Z,11.94
2022-10-19T09:12:21.994Z,12.00
2022-10-19T09:14:58.382Z,12.02
2022-10-19T09:17:30.292Z,12.03
2022-10-19T09:20:00.382Z,12.09
2022-10-19T09:22:34.101Z,12.05
2022-10-19T09:25:10.354Z,12.04
2022-10-19T09:27:41.632Z,12.05
2022-10-19T09:30:20.345Z,12.06
2022-10-19T09:32:53.761Z,12.06
2022-10-19T09:35:29.615Z,12.05
2022-10-19T09:37:58.771Z,12.02
2022-10-19T09:40:29.126Z,11.95
2022-10-19T09:42:59.266Z,11.94
2022-10-19T09:45:38.181Z,11.91
2022-10-19T09:48:29.427Z,11.88
2022-10-19T09:51:00.825Z,11.81
2022-10-19T09:53:30.767Z,11.81
2022-10-19T09:56:02.580Z,11.77
2022-10-19T09:58:33.257Z,11.78
2022-10-19T10:01:04.003Z,11.80
2022-10-19T10:03:36.496Z,11.81
2022-10-19T10:06:08.360Z,11.76
2022-10-19T10:08:39.568Z,11.78
2022-10-19T10:11:12.334Z,11.77
2022-10-19T10:13:43.161Z,11.77
2022-10-19T10:16:16.935Z,11.79
2022-10-19T10:18:55.816Z,11.79
2022-10-19T10:21:27.308Z,11.79
2022-10-19T10:24:18.187Z,11.80
2022-10-19T10:26:49.728Z,11.80
2022-10-19T10:29:22.188Z,11.81
2022-10-19T10:31:57.042Z,11.77
2022-10-19T10:34:46.074Z,11.74
2022-10-19T10:37:23.955Z,11.71
2022-10-19T10:39:56.668Z,11.71
2022-10-19T10:42:31.452Z,11.70
2022-10-19T10:45:01.208Z,11.71
2022-10-19T10:47:31.370Z,11.73
2022-10-19T10:50:06.017Z,11.70
2022-10-19T10:52:37.331Z,11.74
2022-10-19T10:55:18.897Z,11.77
2022-10-19T10:57:51.602Z,11.73
2022-10-19T11:00:22.560Z,11.75
2022-10-19T11:02:58.038Z,11.76
2022-10-19T11:05:32.573Z,11.76
2022-10-19T11:08:09.194Z,11.81
2022-10-19T11:10:48.393Z,11.78
2022-10-19T11:13:26.128Z,11.79
2022-10-19T11:15:57.799Z,11.83
2022-10-19T11:18:31.901Z,11.87
2022-10-19T11:21:08.487Z,11.90
2022-10-19T11:23:48.238Z,11.92
2022-10-19T11:26:37.022Z,11.93
2022-10-19T11:29:25.743Z,11.91
2022-10-19T11:31:57.084Z,11.96
2022-10-19T11:34:53.877Z,11.95
2022-10-19T11:37:30.420Z,11.97
2022-10-19T11:40:09.835Z,11.98
2022-10-19T11:42:58.498Z,11.95
2022-10-19T11:45:44.384Z,11.92
2022-10-19T11:48:34.403Z,11.90
2022-10-19T11:51:20.952Z,11.85
2022-10-19T11:54:08.193Z,11.76
2022-10-19T11:57:02.542Z,11.75
2022-10-19T11:59:44.417Z,11.62
2022-10-19T12:02:29.423Z,11.61
2022-10-19T12:05:01.771Z,11.57
2022-10-19T12:07:45.433Z,11.54
2022-10-19T12:10:30.827Z,11.58
2022-10-19T12:13:04.158Z,11.57
2022-10-19T12:15:36.974Z,11.56
2022-10-19T12:18:13.485Z,11.56
2022-10-19T12:20:47.937Z,11.54
2022-10-19T12:27:01.691Z,11.50
2022-10-19T12:29:33.776Z,11.44
2022-10-19T12:32:06.782Z,11.47
2022-10-19T12:34:48.801Z,11.43
2022-10-19T12:37:26.668Z,11.44
2022-10-19T12:39:58.390Z,11.42
2022-10-19T12:42:31.374Z,11.42
2022-10-19T12:45:30.693Z,11.42
2022-10-19T12:48:21.310Z,11.41
2022-10-19T12:51:21.098Z,11.34
2022-10-19T12:53:50.675Z,11.29
2022-10-19T12:56:27.289Z,11.26
2022-10-19T12:59:25.138Z,11.26
2022-10-19T13:02:00.707Z,11.24
2022-10-19T13:09:42.985Z,11.21
2022-10-19T13:12:47.293Z,11.19
2022-10-19T13:15:59.359Z,11.15
2022-10-19T13:19:07.559Z,11.13
2022-10-19T13:21:53.198Z,11.12
2022-10-19T13:27:41.409Z,11.07
2022-10-19T13:31:04.861Z,11.11
2022-10-19T13:33:49.123Z,11.09
2022-10-19T13:36:17.903Z,11.09
2022-10-19T13:39:03.864Z,11.11
2022-10-19T13:41:49.811Z,11.14
2022-10-19T13:44:25.380Z,11.17
2022-10-19T13:47:29.852Z,11.18
2022-10-19T13:50:31.690Z,11.13
2022-10-19T13:53:21.495Z,11.16
2022-10-19T13:56:10.296Z,11.14
2022-10-19T13:59:10.975Z,11.07
2022-10-19T14:01:55.246Z,11.12
2022-10-19T14:04:36.523Z,11.12
2022-10-19T14:07:14.002Z,11.19
2022-10-19T14:10:04.360Z,11.19
2022-10-19T14:18:06.160Z,11.23
2022-10-19T14:20:35.720Z,11.25
2022-10-19T14:23:20.888Z,11.22
2022-10-19T14:25:54.416Z,11.23
2022-10-19T14:28:24.165Z,11.29
2022-10-19T14:31:00.905Z,11.22
2022-10-19T14:33:33.675Z,11.28
2022-10-19T14:36:03.281Z,11.25
2022-10-19T14:38:36.462Z,11.19
2022-10-19T14:44:46.384Z,11.19
2022-10-19T14:49:52.554Z,11.19
2022-10-19T15:07:40.446Z,11.30
2022-10-19T15:29:26.571Z,11.32
2022-10-19T15:32:38.529Z,11.39
2022-10-19T15:39:24.497Z,11.33
2022-10-19T15:42:20.055Z,11.34
2022-10-19T15:44:52.411Z,11.37
2022-10-19T15:47:27.233Z,11.39
2022-10-19T15:50:33.740Z,11.45
2022-10-19T15:53:35.336Z,11.44
2022-10-19T15:58:34.896Z,11.49
2022-10-19T16:01:03.409Z,11.56
2022-10-19T16:03:39.863Z,11.59
2022-10-19T16:06:15.204Z,11.63
2022-10-19T16:08:47.516Z,11.66
2022-10-19T16:11:34.337Z,11.72
2022-10-19T16:14:14.127Z,11.77
2022-10-19T16:16:45.433Z,11.77
2022-10-19T16:19:15.466Z,11.80
2022-10-19T16:21:49.321Z,11.84
2022-10-19T16:24:20.069Z,11.87
2022-10-19T16:26:48.958Z,11.87
2022-10-19T16:29:28.238Z,11.89
2022-10-19T16:31:57.678Z,11.89
2022-10-19T16:34:28.552Z,11.90
2022-10-19T16:36:56.967Z,11.97
2022-10-19T16:39:27.112Z,11.97
2022-10-19T16:41:55.484Z,11.98
2022-10-19T16:44:25.173Z,12.01
2022-10-19T16:46:53.566Z,12.03
2022-10-19T16:49:23.438Z,12.04
2022-10-19T16:51:56.286Z,12.05
2022-10-19T16:54:30.680Z,12.09
2022-10-19T16:56:59.668Z,12.10
2022-10-19T16:59:34.287Z,12.11
2022-10-19T17:12:33.503Z,12.13
2022-10-19T17:19:30.503Z,12.16
2022-10-19T17:25:34.799Z,12.24
2022-10-19T17:28:10.460Z,12.19
2022-10-19T17:30:43.822Z,12.16
2022-10-19T17:33:12.580Z,12.19
2022-10-19T17:35:43.961Z,12.14
2022-10-19T17:38:14.778Z,12.14
2022-10-19T17:40:45.198Z,12.15
2022-10-19T17:43:15.397Z,12.14
2022-10-19T17:48:17.627Z,12.15
2022-10-19T17:50:47.293Z,12.13
2022-10-19T17:53:51.134Z,12.12
2022-10-19T17:56:53.824Z,12.11
2022-10-19T17:59:55.610Z,12.10
2022-10-19T18:02:25.567Z,12.09
2022-10-19T18:05:03.025Z,12.09
2022-10-19T18:07:44.715Z,12.12
2022-10-19T18:10:29.391Z,12.12
2022-10-19T18:13:10.226Z,12.16
2022-10-19T18:15:41.738Z,12.17
2022-10-19T18:18:37.042Z,12.25
2022-10-19T18:21:39.977Z,12.22
2022-10-19T18:24:23.368Z,12.26
2022-10-19T18:27:23.020Z,12.24
2022-10-19T18:30:29.805Z,12.25
2022-10-19T18:33:12.382Z,12.24
2022-10-19T18:35:51.707Z,12.22
2022-10-19T18:38:37.966Z,12.26
2022-10-19T18:41:25.799Z,12.23
2022-10-19T18:44:05.900Z,12.24
2022-10-19T18:46:40.840Z,12.29
2022-10-19T18:49:10.089Z,12.28
2022-10-19T18:51:40.590Z,12.29
2022-10-19T18:54:09.384Z,12.29
2022-10-19T18:56:38.614Z,12.33
2022-10-19T18:59:07.160Z,12.30
2022-10-19T19:01:35.877Z,12.30
2022-10-19T19:04:14.814Z,12.29
2022-10-19T19:06:45.143Z,12.32
2022-10-19T19:09:14.469Z,12.34
2022-10-19T19:11:42.984Z,12.33
2022-10-19T19:14:14.972Z,12.32
2022-10-19T19:16:44.664Z,12.33
2022-10-19T19:19:14.383Z,12.26
2022-10-19T19:21:45.273Z,12.29
2022-10-19T19:24:16.356Z,12.28
2022-10-19T19:26:48.707Z,12.32
2022-10-19T19:29:18.347Z,12.32
2022-10-19T19:31:47.345Z,12.33
2022-10-19T19:34:16.030Z,12.38
2022-10-19T19:36:48.954Z,12.40
2022-10-19T19:39:20.369Z,12.37
2022-10-19T19:41:49.616Z,12.40
2022-10-19T19:44:19.018Z,12.41
2022-10-19T19:46:48.643Z,12.42
2022-10-19T19:49:17.450Z,12.39
2022-10-19T19:51:47.872Z,12.42
2022-10-19T19:54:17.511Z,12.42
2022-10-19T19:56:46.105Z,12.44
2022-10-19T19:59:14.811Z,12.42
2022-10-19T20:01:44.475Z,12.43
2022-10-19T20:04:13.982Z,12.42
2022-10-19T20:06:44.676Z,12.43
2022-10-19T20:09:14.931Z,12.44
2022-10-19T20:11:43.300Z,12.42
2022-10-19T20:14:12.255Z,12.45
2022-10-19T20:16:40.746Z,12.46
2022-10-19T20:19:11.767Z,12.48
2022-10-19T20:21:40.596Z,12.45
2022-10-19T20:24:09.953Z,12.45
2022-10-19T20:26:40.034Z,12.45
2022-10-19T20:29:11.133Z,12.45
2022-10-19T20:31:41.928Z,12.51
2022-10-19T20:34:13.444Z,12.51
2022-10-19T20:36:47.049Z,12.55
2022-10-19T20:39:17.380Z,12.57
2022-10-19T20:41:47.864Z,12.70
2022-10-19T20:44:17.600Z,12.61
2022-10-19T20:46:48.161Z,12.61
2022-10-19T20:49:41.676Z,12.62
2022-10-19T20:52:11.179Z,12.59
2022-10-19T20:54:42.452Z,12.49
2022-10-19T20:57:13.845Z,12.44
2022-10-19T20:59:46.627Z,12.35
2022-10-19T21:02:16.686Z,12.22
2022-10-19T21:04:47.147Z,12.07
2022-10-19T21:07:17.703Z,11.98
2022-10-19T21:09:46.584Z,11.95
2022-10-19T21:12:17.709Z,11.89
2022-10-19T21:14:48.434Z,11.86
2022-10-19T21:17:18.380Z,11.86
2022-10-19T21:19:48.563Z,11.83
2022-10-19T21:22:17.972Z,11.82
2022-10-19T21:24:48.148Z,11.82
2022-10-19T21:27:18.891Z,11.82
2022-10-19T21:29:49.046Z,11.80
2022-10-19T21:32:19.128Z,11.78
2022-10-19T21:34:49.259Z,11.75
2022-10-19T21:37:17.727Z,11.75
2022-10-19T21:39:48.151Z,11.76
2022-10-19T21:42:20.650Z,11.75
2022-10-19T21:44:54.074Z,11.74
2022-10-19T21:47:31.063Z,11.72
2022-10-19T21:50:02.524Z,11.73
2022-10-19T21:52:32.420Z,11.74
2022-10-19T21:55:03.289Z,11.74
2022-10-19T21:57:33.810Z,11.77
2022-10-19T22:00:02.438Z,11.78
2022-10-19T22:02:30.904Z,11.80
2022-10-19T22:04:59.269Z,11.81
2022-10-19T22:07:27.549Z,11.82
2022-10-19T22:09:56.823Z,11.81
2022-10-19T22:12:25.456Z,11.80
2022-10-19T22:14:55.318Z,11.80
2022-10-19T22:17:23.669Z,11.81
2022-10-19T22:19:52.470Z,11.79
2022-10-19T22:22:21.376Z,11.79
2022-10-19T22:24:49.968Z,11.80
2022-10-19T22:27:18.427Z,11.81
2022-10-19T22:29:47.054Z,11.82
2022-10-19T22:32:17.286Z,11.84
2022-10-19T22:34:45.618Z,11.86
2022-10-19T22:37:14.289Z,11.86
2022-10-19T22:39:43.083Z,11.87
2022-10-19T22:43:06.837Z,11.89
2022-10-19T22:45:35.566Z,11.90
2022-10-19T22:48:05.801Z,11.92
2022-10-19T22:50:34.520Z,11.93
2022-10-19T22:53:03.190Z,11.93
2022-10-19T22:55:32.995Z,11.93
2022-10-19T22:58:04.793Z,11.93
2022-10-19T23:00:33.575Z,11.91
2022-10-19T23:03:02.020Z,11.92
2022-10-19T23:05:31.986Z,11.93
2022-10-19T23:08:00.566Z,11.94
2022-10-19T23:10:29.602Z,11.93
2022-10-19T23:12:58.145Z,11.93
2022-10-19T23:15:26.545Z,11.93
2022-10-19T23:17:55.167Z,11.93
2022-10-19T23:20:23.777Z,11.95
2022-10-19T23:22:54.134Z,11.95
2022-10-19T23:25:22.648Z,11.95
2022-10-19T23:27:51.422Z,11.97
2022-10-19T23:30:20.037Z,11.97
2022-10-19T23:32:48.423Z,11.98
2022-10-19T23:35:17.277Z,11.99
2022-10-19T23:37:45.869Z,11.99
2022-10-19T23:40:16.259Z,12.00
2022-10-19T23:42:46.102Z,12.01
2022-10-19T23:45:15.643Z,12.04
2022-10-19T23:47:44.286Z,12.05
2022-10-19T23:50:13.143Z,12.03
2022-10-19T23:52:41.892Z,12.03
2022-10-19T23:55:11.346Z,12.04
2022-10-19T23:57:41.392Z,12.04
